Time;durP1;ratioP1;P1;durP2;ratioP2;P2;SDS_P1;SDS_P2;PMS_P1;PMS_P2;Temp;Humidity;BMP_temperature;BMP_pressure;BME280_temperature;BME280_humidity;BME280_pressure;Samples;Min_cycle;Max_cycle;Signal;HPM_P1;HPM_P2
2022/11/30 00:00:57;;;;;;;4.68;1.20;;;22.90;53.00;;;;;;4084280;28;20091;-41
2022/11/30 00:03:19;;;;;;;1.90;0.95;;;22.90;53.00;;;;;;4083500;29;20040;-42
2022/11/30 00:05:42;;;;;;;3.08;1.30;;;22.90;52.90;;;;;;4085066;28;20067;-38
2022/11/30 00:08:04;;;;;;;2.42;1.02;;;22.90;52.90;;;;;;4084593;28;20578;-39
2022/11/30 00:10:27;;;;;;;2.58;1.20;;;22.90;52.90;;;;;;4083506;28;20093;-39
2022/11/30 00:12:50;;;;;;;2.92;1.38;;;22.90;52.90;;;;;;4080754;29;20538;-41
2022/11/30 00:15:16;;;;;;;4.22;1.27;;;22.90;52.90;;;;;;4085289;28;20543;-39
2022/11/30 00:17:39;;;;;;;2.28;0.90;;;22.90;53.00;;;;;;4082911;28;20043;-40
2022/11/30 00:20:02;;;;;;;3.17;1.27;;;22.90;52.90;;;;;;4085233;28;20105;-41
2022/11/30 00:22:24;;;;;;;3.08;0.90;;;22.90;53.00;;;;;;4084451;28;20602;-42
2022/11/30 00:24:47;;;;;;;3.25;1.10;;;22.90;52.90;;;;;;4079588;28;20035;-38
2022/11/30 00:27:09;;;;;;;4.30;1.20;;;22.90;52.90;;;;;;4085172;28;20054;-45
2022/11/30 00:29:33;;;;;;;2.35;1.23;;;22.90;52.90;;;;;;4083404;28;20101;-37
2022/11/30 00:31:55;;;;;;;2.63;1.10;;;22.90;52.90;;;;;;4084639;28;20083;-38
2022/11/30 00:34:18;;;;;;;2.92;1.02;;;22.90;52.90;;;;;;4084048;28;20401;-40
2022/11/30 00:36:40;;;;;;;3.42;1.35;;;22.90;52.90;;;;;;4087160;28;20463;-38
2022/11/30 00:39:03;;;;;;;2.38;1.08;;;22.90;52.90;;;;;;4086172;28;20545;-42
2022/11/30 00:41:26;;;;;;;1.88;0.85;;;22.90;52.90;;;;;;4077531;28;20043;-39
2022/11/30 00:43:49;;;;;;;2.65;1.00;;;22.90;52.90;;;;;;4076127;28;20035;-40
2022/11/30 00:46:11;;;;;;;2.35;1.00;;;23.00;53.00;;;;;;4086489;28;20086;-40
2022/11/30 00:48:34;;;;;;;3.78;1.55;;;23.00;53.00;;;;;;4085523;28;20483;-42
2022/11/30 00:50:57;;;;;;;2.45;1.10;;;22.90;52.90;;;;;;4085815;28;20047;-39
2022/11/30 00:53:20;;;;;;;2.35;0.90;;;23.00;52.90;;;;;;4075101;28;20048;-39
2022/11/30 00:55:44;;;;;;;1.67;0.67;;;23.00;53.00;;;;;;4077104;28;20125;-41
2022/11/30 00:58:06;;;;;;;2.65;0.98;;;23.00;52.90;;;;;;4083729;28;20293;-41
2022/11/30 01:00:29;;;;;;;2.92;1.05;;;23.00;52.90;;;;;;4084054;28;20515;-41
2022/11/30 01:02:55;;;;;;;3.50;1.25;;;23.00;52.90;;;;;;4085462;28;20063;-39
2022/11/30 01:05:18;;;;;;;1.92;0.80;;;23.00;52.90;;;;;;4084453;28;20054;-40
2022/11/30 01:07:40;;;;;;;2.88;1.23;;;23.00;52.80;;;;;;4080346;28;20035;-39
2022/11/30 01:10:04;;;;;;;3.25;1.05;;;23.00;52.80;;;;;;4081991;28;20390;-39
2022/11/30 01:12:27;;;;;;;2.00;1.02;;;23.00;52.80;;;;;;4078974;28;20035;-43
2022/11/30 01:14:49;;;;;;;3.95;1.35;;;23.00;52.80;;;;;;4080977;28;20055;-43
2022/11/30 01:17:12;;;;;;;2.20;1.10;;;23.00;52.80;;;;;;4085265;28;20050;-41
2022/11/30 01:19:34;;;;;;;2.38;1.00;;;23.00;52.80;;;;;;4085320;28;20047;-40
2022/11/30 01:21:57;;;;;;;3.63;1.10;;;23.00;52.70;;;;;;4083925;28;20086;-45
2022/11/30 01:24:20;;;;;;;2.08;1.05;;;23.00;52.70;;;;;;4083821;28;20485;-40
2022/11/30 01:26:42;;;;;;;2.53;1.23;;;23.00;52.80;;;;;;4084205;28;20051;-40
2022/11/30 01:29:05;;;;;;;2.42;0.85;;;23.00;52.70;;;;;;4083228;28;20115;-38
2022/11/30 01:31:27;;;;;;;2.45;1.08;;;23.00;52.70;;;;;;4079518;28;20059;-41
2022/11/30 01:33:54;;;;;;;2.95;1.35;;;23.00;52.70;;;;;;4081311;28;20487;-41
2022/11/30 01:36:20;;;;;;;2.80;1.17;;;23.00;52.70;;;;;;4080955;28;20046;-40
2022/11/30 01:38:46;;;;;;;2.78;1.08;;;23.00;52.70;;;;;;4080613;28;20043;-39
2022/11/30 01:41:10;;;;;;;3.15;1.10;;;23.00;52.70;;;;;;4081962;28;20039;-42
2022/11/30 01:44:06;;;;;;;2.00;0.88;;;23.00;52.70;;;;;;4078518;28;20069;-40
2022/11/30 01:46:35;;;;;;;3.58;1.42;;;23.00;52.70;;;;;;4056999;29;20453;-42
2022/11/30 01:49:16;;;;;;;4.47;1.38;;;23.00;52.70;;;;;;4085196;28;20134;-42
2022/11/30 01:52:26;;;;;;;3.10;1.20;;;23.00;52.70;;;;;;4080847;28;20046;-38
2022/11/30 01:55:24;;;;;;;2.47;1.00;;;23.00;52.70;;;;;;3999115;29;20037;-40
2022/11/30 01:57:56;;;;;;;2.72;1.08;;;23.00;52.70;;;;;;4000680;29;20044;-40
2022/11/30 02:00:20;;;;;;;1.95;0.90;;;23.00;52.70;;;;;;4069018;28;20050;-39
2022/11/30 02:03:15;;;;;;;3.53;1.15;;;23.10;52.70;;;;;;4078174;28;20047;-39
2022/11/30 02:05:42;;;;;;;3.13;1.02;;;23.00;52.70;;;;;;4080531;28;20062;-39
2022/11/30 02:08:06;;;;;;;2.67;0.75;;;23.10;52.70;;;;;;4082889;28;20093;-41
2022/11/30 02:10:29;;;;;;;;;;;23.10;52.70;;;;;;4084540;28;20511;-41
2022/11/30 02:13:28;;;;;;;2.63;1.30;;;23.10;52.70;;;;;;4083609;28;19910;-43
2022/11/30 02:16:00;;;;;;;2.33;1.23;;;23.20;52.70;;;;;;4079371;28;20414;-40
2022/11/30 02:18:46;;;;;;;2.30;1.05;;;23.10;52.50;;;;;;4079101;28;20047;-39
2022/11/30 02:21:29;;;;;;;2.03;0.80;;;23.20;52.60;;;;;;4086728;28;20031;-39
2022/11/30 02:24:42;;;;;;;3.50;0.90;;;23.20;52.60;;;;;;4085570;28;20047;-39
2022/11/30 02:27:17;;;;;;;1.75;0.80;;;23.20;52.60;;;;;;4052974;28;20554;-40
2022/11/30 02:30:03;;;;;;;2.75;1.10;;;23.20;52.60;;;;;;4082374;28;20394;-39
2022/11/30 02:32:31;;;;;;;2.40;1.02;;;23.20;52.60;;;;;;4084731;28;20111;-39
2022/11/30 02:34:56;;;;;;;2.28;0.88;;;23.20;52.60;;;;;;4079247;28;20039;-39
2022/11/30 02:37:20;;;;;;;3.72;0.90;;;23.20;52.60;;;;;;4064829;28;20487;-39
2022/11/30 02:39:43;;;;;;;3.20;1.00;;;23.20;52.60;;;;;;4074784;28;20040;-41
2022/11/30 02:42:14;;;;;;;2.40;1.05;;;23.20;52.60;;;;;;4072695;28;20050;-37
2022/11/30 02:44:36;;;;;;;3.13;0.98;;;23.20;52.60;;;;;;4078217;28;20039;-38
2022/11/30 02:47:25;;;;;;;2.92;1.20;;;23.20;52.60;;;;;;4077735;28;20047;-41
2022/11/30 02:50:18;;;;;;;4.07;1.27;;;23.20;52.60;;;;;;4079147;28;20089;-39
2022/11/30 02:52:41;;;;;;;2.90;0.90;;;23.20;52.60;;;;;;4074846;28;20532;-38
2022/11/30 02:55:10;;;;;;;2.37;0.80;;;23.20;52.60;;;;;;4078256;28;20043;-39
2022/11/30 02:57:33;;;;;;;2.50;1.30;;;23.20;52.60;;;;;;4078816;28;20035;-40
2022/11/30 02:59:56;;;;;;;3.67;1.25;;;23.20;52.60;;;;;;4078022;28;20047;-38
2022/11/30 03:02:19;;;;;;;3.20;1.13;;;23.20;52.70;;;;;;4073443;28;20032;-43
2022/11/30 03:04:42;;;;;;;2.00;0.80;;;23.20;52.70;;;;;;4081369;28;20435;-41
2022/11/30 03:07:04;;;;;;;4.03;1.10;;;23.20;52.70;;;;;;4087544;28;20043;-39
2022/11/30 03:09:27;;;;;;;2.03;1.17;;;23.20;52.70;;;;;;4084842;28;20113;-45
2022/11/30 03:11:50;;;;;;;4.10;1.13;;;23.20;52.70;;;;;;4084283;28;20120;-39
2022/11/30 03:14:12;;;;;;;1.70;0.85;;;23.20;52.70;;;;;;4079912;28;20415;-39
2022/11/30 03:16:38;;;;;;;3.08;1.00;;;23.20;52.70;;;;;;4087407;28;20098;-41
2022/11/30 03:19:01;;;;;;;3.10;0.98;;;23.30;52.70;;;;;;4082365;28;20451;-41
2022/11/30 03:21:24;;;;;;;2.95;1.25;;;23.20;52.70;;;;;;4083808;28;20047;-40
2022/11/30 03:23:46;;;;;;;3.38;1.30;;;23.30;52.80;;;;;;4080385;28;20035;-38
2022/11/30 03:26:09;;;;;;;1.63;0.90;;;23.20;52.70;;;;;;4079295;28;20047;-39
2022/11/30 03:28:32;;;;;;;2.33;0.98;;;23.20;52.70;;;;;;4088156;28;20039;-41
2022/11/30 03:30:54;;;;;;;6.13;1.40;;;23.20;52.70;;;;;;4084273;28;20074;-38
2022/11/30 03:33:17;;;;;;;2.65;1.02;;;23.20;52.60;;;;;;4086030;28;20039;-39
2022/11/30 03:35:40;;;;;;;2.08;1.02;;;23.20;52.60;;;;;;4083208;28;20039;-39
2022/11/30 03:38:02;;;;;;;1.95;0.93;;;23.30;52.70;;;;;;4084457;28;20071;-41
2022/11/30 03:40:25;;;;;;;2.78;1.20;;;23.30;52.70;;;;;;4085403;28;20081;-39
2022/11/30 03:42:47;;;;;;;3.92;1.50;;;23.30;52.70;;;;;;4087162;28;20062;-39
2022/11/30 03:45:10;;;;;;;4.40;1.00;;;23.30;52.70;;;;;;4085048;28;20042;-41
2022/11/30 03:47:33;;;;;;;3.35;0.93;;;23.30;52.60;;;;;;4078138;28;20051;-40
2022/11/30 03:49:55;;;;;;;4.43;0.90;;;23.30;52.60;;;;;;4086757;28;20153;-39
2022/11/30 03:52:18;;;;;;;3.15;1.08;;;23.30;52.60;;;;;;4086612;28;20039;-40
2022/11/30 03:54:40;;;;;;;2.40;1.00;;;23.30;52.60;;;;;;4084663;28;20039;-42
2022/11/30 03:57:03;;;;;;;2.80;1.00;;;23.30;52.60;;;;;;4083084;28;20546;-41
2022/11/30 03:59:25;;;;;;;2.22;0.85;;;23.30;52.60;;;;;;4087171;28;20058;-39
2022/11/30 04:01:48;;;;;;;2.60;1.13;;;23.30;52.60;;;;;;4082892;28;20158;-41
2022/11/30 04:04:11;;;;;;;3.35;1.02;;;23.30;52.60;;;;;;4080513;28;20043;-41
2022/11/30 04:06:34;;;;;;;2.00;1.00;;;23.30;52.50;;;;;;4082924;28;20058;-43
2022/11/30 04:08:57;;;;;;;4.03;1.13;;;23.30;52.50;;;;;;4078127;28;20046;-42
2022/11/30 04:11:19;;;;;;;3.28;0.70;;;23.30;52.50;;;;;;4082678;28;20504;-42
2022/11/30 04:13:42;;;;;;;2.50;0.85;;;23.30;52.50;;;;;;4085173;28;20055;-39
2022/11/30 04:16:06;;;;;;;2.00;1.10;;;23.30;52.50;;;;;;4084172;28;20047;-42
2022/11/30 04:18:30;;;;;;;3.40;0.95;;;23.30;52.50;;;;;;4081155;28;20039;-41
2022/11/30 04:20:57;;;;;;;3.30;1.10;;;23.30;52.40;;;;;;4084778;28;20154;-41
2022/11/30 04:23:21;;;;;;;4.53;1.20;;;23.30;52.40;;;;;;4084335;29;20486;-39
2022/11/30 04:25:44;;;;;;;2.25;1.00;;;23.30;52.50;;;;;;4083576;28;20039;-39
2022/11/30 04:28:08;;;;;;;2.33;0.85;;;23.30;52.40;;;;;;4086344;28;20046;-43
2022/11/30 04:30:31;;;;;;;3.85;1.20;;;23.30;52.40;;;;;;4082518;28;20063;-39
2022/11/30 04:32:54;;;;;;;2.97;1.08;;;23.30;52.40;;;;;;4087472;28;20043;-45
2022/11/30 04:35:16;;;;;;;3.22;1.13;;;23.30;52.50;;;;;;4083968;28;20487;-42
2022/11/30 04:37:39;;;;;;;2.20;0.80;;;23.30;52.40;;;;;;4082362;28;20911;-40
2022/11/30 04:40:02;;;;;;;3.42;1.17;;;23.30;52.40;;;;;;4085583;28;20043;-39
2022/11/30 04:42:24;;;;;;;3.70;0.90;;;23.30;52.30;;;;;;4084593;28;20047;-39
2022/11/30 04:44:47;;;;;;;3.17;1.50;;;23.30;52.30;;;;;;4084908;28;20408;-40
2022/11/30 04:47:09;;;;;;;1.50;0.80;;;23.30;52.30;;;;;;4086433;28;20057;-39
2022/11/30 04:49:32;;;;;;;3.75;1.35;;;23.30;52.30;;;;;;4082480;28;20045;-45
2022/11/30 04:51:54;;;;;;;3.85;1.15;;;23.30;52.30;;;;;;4085263;28;20482;-41
2022/11/30 04:54:17;;;;;;;1.95;1.00;;;23.30;52.20;;;;;;4080712;28;20042;-40
2022/11/30 04:56:39;;;;;;;3.53;1.50;;;23.30;52.20;;;;;;4078325;28;20048;-41
2022/11/30 04:59:02;;;;;;;2.05;0.70;;;23.30;52.20;;;;;;4082812;28;20035;-40
2022/11/30 05:01:25;;;;;;;2.58;1.17;;;23.30;52.20;;;;;;4085348;28;20051;-42
2022/11/30 05:03:47;;;;;;;2.60;0.90;;;23.30;52.10;;;;;;4084754;28;20039;-40
2022/11/30 05:06:10;;;;;;;4.43;1.20;;;23.30;52.10;;;;;;4082638;28;20055;-39
2022/11/30 05:08:32;;;;;;;2.85;1.05;;;23.30;52.10;;;;;;4084821;28;20047;-41
2022/11/30 05:10:55;;;;;;;2.70;1.00;;;23.30;52.00;;;;;;4084488;28;20047;-41
2022/11/30 05:13:18;;;;;;;3.17;0.77;;;23.30;52.00;;;;;;4083551;28;20031;-44
2022/11/30 05:15:40;;;;;;;2.92;0.70;;;23.40;52.00;;;;;;4078224;28;20090;-38
2022/11/30 05:18:03;;;;;;;5.00;1.00;;;23.40;52.00;;;;;;4082089;28;20196;-42
2022/11/30 05:20:26;;;;;;;2.13;1.10;;;23.40;52.00;;;;;;4075821;28;20059;-39
2022/11/30 05:22:49;;;;;;;1.92;0.82;;;23.40;52.00;;;;;;4082288;28;20412;-40
2022/11/30 05:25:11;;;;;;;2.43;0.90;;;23.40;52.00;;;;;;4079971;28;20057;-38
2022/11/30 05:27:34;;;;;;;3.22;1.15;;;23.40;52.60;;;;;;4079579;28;20406;-39
2022/11/30 05:29:56;;;;;;;2.25;0.75;;;23.40;52.00;;;;;;4082563;28;20085;-40
2022/11/30 05:32:19;;;;;;;1.85;0.90;;;23.40;52.00;;;;;;4085308;28;20498;-39
2022/11/30 05:34:41;;;;;;;1.55;0.85;;;23.40;52.00;;;;;;4078829;28;20042;-39
2022/11/30 05:37:04;;;;;;;2.45;0.82;;;23.40;52.00;;;;;;4085347;28;20047;-40
2022/11/30 05:39:26;;;;;;;2.28;1.00;;;23.40;51.90;;;;;;4083210;28;20035;-45
2022/11/30 05:41:49;;;;;;;1.85;1.00;;;23.40;51.90;;;;;;4082618;28;20072;-42
2022/11/30 05:44:12;;;;;;;1.98;1.10;;;23.40;51.90;;;;;;4071201;28;20039;-39
2022/11/30 05:46:34;;;;;;;1.73;0.80;;;23.40;51.90;;;;;;4070695;28;20130;-40
2022/11/30 05:48:57;;;;;;;2.53;0.82;;;23.50;51.90;;;;;;4085386;28;20086;-43
2022/11/30 05:51:20;;;;;;;2.03;0.82;;;23.50;51.80;;;;;;4087658;28;20411;-40
2022/11/30 05:53:44;;;;;;;3.45;0.80;;;23.50;51.80;;;;;;4088025;28;20095;-42
2022/11/30 05:56:09;;;;;;;;;;;23.50;51.80;;;;;;4087132;28;20047;-44
2022/11/30 05:58:34;;;;;;;1.90;0.80;;;23.50;51.70;;;;;;4083726;28;19918;-39
2022/11/30 06:00:57;;;;;;;1.70;0.80;;;23.50;51.70;;;;;;4085139;28;20078;-41
2022/11/30 06:03:20;;;;;;;1.83;0.75;;;23.50;51.70;;;;;;4085629;28;20047;-40
2022/11/30 06:05:42;;;;;;;3.42;1.30;;;23.50;51.60;;;;;;4078218;28;20063;-40
2022/11/30 06:08:05;;;;;;;3.38;1.17;;;23.60;51.60;;;;;;4087210;28;20039;-39
2022/11/30 06:10:27;;;;;;;2.67;1.10;;;23.60;52.20;;;;;;4088188;28;20656;-40
2022/11/30 06:12:50;;;;;;;3.22;1.05;;;23.60;51.50;;;;;;4083325;28;20075;-39
2022/11/30 06:15:13;;;;;;;2.55;0.75;;;23.60;51.50;;;;;;4077732;28;20054;-40
2022/11/30 06:17:38;;;;;;;1.73;0.80;;;23.70;51.40;;;;;;4083640;28;20047;-42
2022/11/30 06:20:00;;;;;;;1.33;0.70;;;23.80;51.40;;;;;;4085174;28;20465;-41
2022/11/30 06:22:23;;;;;;;2.25;0.98;;;23.80;51.30;;;;;;4086306;28;20401;-40
2022/11/30 06:24:46;;;;;;;1.95;0.80;;;23.80;51.20;;;;;;4087024;28;20114;-40
2022/11/30 06:27:08;;;;;;;1.95;0.85;;;23.80;51.10;;;;;;4084750;28;20035;-41
2022/11/30 06:29:31;;;;;;;2.25;0.80;;;23.90;51.20;;;;;;4082600;28;20142;-42
2022/11/30 06:31:53;;;;;;;1.95;0.93;;;23.90;51.00;;;;;;4082421;28;20062;-43
2022/11/30 06:34:16;;;;;;;2.53;1.08;;;24.00;50.80;;;;;;4083796;28;20071;-41
2022/11/30 06:36:38;;;;;;;2.33;1.13;;;24.10;50.70;;;;;;4077949;28;20032;-40
2022/11/30 06:39:01;;;;;;;2.22;0.80;;;24.10;51.30;;;;;;4080397;28;20075;-43
2022/11/30 06:41:25;;;;;;;4.30;1.00;;;24.20;50.60;;;;;;4081132;28;20039;-42
2022/11/30 06:43:47;;;;;;;4.07;1.00;;;24.20;50.60;;;;;;4080058;28;20059;-39
2022/11/30 06:46:10;;;;;;;2.50;1.00;;;24.20;50.60;;;;;;4079703;28;20054;-39
2022/11/30 06:48:33;;;;;;;1.48;0.70;;;24.20;50.60;;;;;;4080131;28;20044;-40
2022/11/30 06:50:56;;;;;;;2.03;0.80;;;24.20;50.60;;;;;;4083290;28;20058;-40
2022/11/30 06:53:18;;;;;;;1.25;0.63;;;24.20;50.60;;;;;;4080340;29;20662;-41
2022/11/30 06:55:41;;;;;;;1.42;0.82;;;24.20;50.60;;;;;;4084591;28;20198;-40
2022/11/30 06:58:08;;;;;;;2.30;0.93;;;24.20;50.50;;;;;;4082065;28;20563;-41
2022/11/30 07:00:30;;;;;;;2.85;0.73;;;24.20;50.50;;;;;;4082720;28;20752;-41
2022/11/30 07:02:53;;;;;;;1.55;0.80;;;24.20;50.50;;;;;;4080111;28;20047;-42
2022/11/30 07:05:15;;;;;;;2.53;0.75;;;24.20;50.50;;;;;;4077730;28;20583;-40
2022/11/30 07:07:38;;;;;;;1.08;0.50;;;24.20;50.60;;;;;;4083327;28;20054;-45
2022/11/30 07:10:01;;;;;;;1.42;0.70;;;24.20;50.60;;;;;;4086265;28;20043;-38
2022/11/30 07:12:24;;;;;;;3.15;1.00;;;24.20;50.70;;;;;;4079638;28;20129;-42
2022/11/30 07:14:51;;;;;;;2.85;1.33;;;24.20;50.70;;;;;;4083498;28;20031;-40
2022/11/30 07:17:13;;;;;;;1.38;0.88;;;24.10;50.70;;;;;;4084467;28;20047;-43
2022/11/30 07:19:36;;;;;;;3.03;1.10;;;24.10;50.80;;;;;;4078484;28;20587;-40
2022/11/30 07:21:58;;;;;;;1.75;0.80;;;24.10;50.80;;;;;;4082254;28;20340;-41
2022/11/30 07:27:03;;;;;;;0.38;0.35;;;24.10;50.90;;;;;;4078657;28;20048;-43
2022/11/30 07:29:26;;;;;;;2.17;1.07;;;24.10;50.90;;;;;;4081022;28;20054;-38
2022/11/30 07:31:52;;;;;;;2.05;0.88;;;24.00;50.90;;;;;;4080896;28;20308;-38
2022/11/30 07:34:15;;;;;;;2.35;0.98;;;24.00;51.00;;;;;;4081406;28;20539;-40
2022/11/30 07:36:37;;;;;;;2.10;0.88;;;24.00;51.00;;;;;;4083646;28;20094;-43
2022/11/30 07:39:00;;;;;;;3.15;1.23;;;24.00;51.10;;;;;;4085864;28;20047;-40
2022/11/30 07:41:23;;;;;;;2.03;0.90;;;24.00;51.10;;;;;;4066603;28;20061;-43
2022/11/30 07:43:45;;;;;;;1.95;0.82;;;24.00;51.10;;;;;;4083160;28;20049;-44
2022/11/30 07:46:11;;;;;;;1.80;0.93;;;24.00;51.10;;;;;;4085814;28;20499;-41
2022/11/30 07:48:34;;;;;;;1.98;0.93;;;23.90;51.10;;;;;;4080882;28;20388;-40
2022/11/30 07:51:08;;;;;;;2.73;1.20;;;23.90;51.10;;;;;;4080382;28;20207;-40
2022/11/30 07:53:30;;;;;;;2.93;1.27;;;23.90;51.20;;;;;;4080742;28;20285;-42
2022/11/30 07:55:53;;;;;;;2.38;0.98;;;23.90;51.30;;;;;;4083702;28;20686;-39
2022/11/30 07:58:15;;;;;;;2.40;0.70;;;23.90;51.30;;;;;;4084024;28;20039;-40
2022/11/30 08:00:38;;;;;;;4.30;1.00;;;23.80;51.20;;;;;;4084918;28;20046;-40
2022/11/30 08:03:01;;;;;;;5.10;1.30;;;23.80;51.20;;;;;;4079151;28;20074;-41
2022/11/30 08:05:24;;;;;;;2.97;1.15;;;23.80;51.20;;;;;;4077362;28;21343;-42
2022/11/30 08:07:51;;;;;;;3.03;1.00;;;23.80;51.20;;;;;;4080990;28;20046;-44
2022/11/30 08:10:13;;;;;;;3.47;1.15;;;23.80;51.30;;;;;;4067413;28;20035;-43
2022/11/30 08:12:36;;;;;;;5.28;1.33;;;23.80;51.30;;;;;;4073712;28;20518;-44
2022/11/30 08:14:59;;;;;;;4.05;1.00;;;23.80;51.70;;;;;;4074600;28;20415;-39
2022/11/30 08:17:21;;;;;;;5.32;1.13;;;23.80;51.90;;;;;;4072179;28;20058;-43
2022/11/30 08:19:44;;;;;;;17.58;1.70;;;23.80;52.20;;;;;;4077200;28;20035;-43
2022/11/30 08:22:06;;;;;;;8.73;1.40;;;23.80;52.50;;;;;;4075848;28;20043;-44
2022/11/30 08:24:29;;;;;;;2.92;0.80;;;23.90;52.60;;;;;;4074698;28;20533;-42
2022/11/30 08:26:52;;;;;;;5.55;1.02;;;23.90;52.70;;;;;;4073557;28;20085;-42
2022/11/30 08:29:14;;;;;;;2.57;0.73;;;23.90;52.70;;;;;;4074150;28;20039;-42
2022/11/30 08:31:37;;;;;;;4.93;0.82;;;24.00;52.80;;;;;;4077942;28;20505;-41
2022/11/30 08:34:09;;;;;;;6.80;1.23;;;24.00;52.80;;;;;;4080862;28;20067;-43
2022/11/30 08:36:32;;;;;;;2.58;0.95;;;24.00;52.90;;;;;;4081031;28;20078;-42
2022/11/30 08:38:58;;;;;;;1.27;0.57;;;24.10;52.90;;;;;;4073986;28;20058;-44
2022/11/30 08:41:22;;;;;;;6.25;1.00;;;24.10;52.90;;;;;;4080459;28;20518;-47
2022/11/30 08:43:44;;;;;;;;;;;24.10;52.90;;;;;;4076460;28;20050;-42
2022/11/30 08:46:11;;;;;;;5.57;1.20;;;24.10;52.90;;;;;;4078449;28;19923;-42
2022/11/30 08:48:34;;;;;;;3.88;0.93;;;24.10;52.70;;;;;;4080433;28;20190;-40
2022/11/30 08:51:01;;;;;;;2.83;0.80;;;24.10;52.90;;;;;;4077783;28;20053;-42
2022/11/30 08:53:24;;;;;;;6.00;0.88;;;24.10;53.00;;;;;;4080150;28;20114;-43
2022/11/30 08:55:57;;;;;;;6.63;1.30;;;24.10;53.10;;;;;;4081699;28;20074;-43
2022/11/30 08:58:20;;;;;;;3.42;1.23;;;24.10;53.30;;;;;;4078644;28;20047;-44
2022/11/30 09:00:42;;;;;;;4.68;0.85;;;24.10;53.50;;;;;;4079507;28;20043;-42
2022/11/30 09:03:05;;;;;;;5.57;1.17;;;24.20;53.50;;;;;;4085521;28;20049;-46
2022/11/30 09:05:27;;;;;;;4.15;0.70;;;24.20;53.60;;;;;;4082003;28;20043;-41
2022/11/30 09:07:50;;;;;;;4.80;0.73;;;24.20;53.60;;;;;;4079770;28;20043;-44
2022/11/30 09:10:13;;;;;;;1.70;0.60;;;24.20;53.60;;;;;;4082943;28;20495;-41
2022/11/30 09:12:40;;;;;;;2.17;0.73;;;24.20;53.60;;;;;;4084817;28;20561;-41
2022/11/30 09:15:03;;;;;;;1.38;0.55;;;24.20;53.50;;;;;;4080643;28;20491;-46
2022/11/30 09:17:25;;;;;;;1.83;0.57;;;24.30;53.50;;;;;;4076636;28;20051;-41
2022/11/30 09:19:48;;;;;;;2.13;0.70;;;24.30;53.40;;;;;;4082075;28;20547;-40
2022/11/30 09:22:10;;;;;;;2.05;0.70;;;24.40;53.50;;;;;;4082909;28;20039;-42
2022/11/30 09:24:33;;;;;;;2.65;0.68;;;24.40;53.50;;;;;;4084175;28;20503;-44
2022/11/30 09:26:56;;;;;;;4.20;1.05;;;24.40;53.50;;;;;;4083890;28;20541;-43
2022/11/30 09:29:22;;;;;;;2.20;0.80;;;24.40;53.50;;;;;;4069251;28;20071;-46
2022/11/30 09:31:45;;;;;;;2.35;0.80;;;24.40;53.50;;;;;;4075922;28;20047;-40
2022/11/30 09:34:09;;;;;;;3.28;0.80;;;24.40;54.10;;;;;;4083506;28;20054;-43
2022/11/30 09:36:32;;;;;;;2.50;1.08;;;24.40;53.50;;;;;;4082918;28;20039;-43
2022/11/30 09:38:56;;;;;;;1.48;0.88;;;24.40;53.50;;;;;;4083968;28;20050;-43
2022/11/30 09:41:42;;;;;;;1.85;0.70;;;24.40;53.50;;;;;;4080656;28;20027;-42
2022/11/30 09:44:26;;;;;;;4.05;0.70;;;24.40;53.60;;;;;;4081294;28;20039;-43
2022/11/30 09:47:23;;;;;;;2.07;0.97;;;24.40;53.60;;;;;;4079802;28;20063;-43
2022/11/30 09:49:47;;;;;;;4.32;1.23;;;24.40;53.60;;;;;;4084085;28;20047;-40
2022/11/30 09:52:20;;;;;;;2.28;0.90;;;24.40;53.50;;;;;;4084247;28;20057;-41
2022/11/30 09:54:44;;;;;;;2.67;0.82;;;24.40;53.50;;;;;;4078618;28;20043;-42
2022/11/30 09:57:46;;;;;;;1.58;0.70;;;24.40;53.50;;;;;;4082009;28;20047;-43
2022/11/30 10:00:18;;;;;;;2.08;0.90;;;24.50;53.50;;;;;;4080338;28;20364;-40
2022/11/30 10:02:41;;;;;;;2.58;1.02;;;24.50;53.50;;;;;;4083517;28;20043;-43
2022/11/30 10:05:22;;;;;;;2.33;0.95;;;24.50;53.40;;;;;;4082795;28;20039;-39
2022/11/30 10:08:17;;;;;;;1.90;1.00;;;24.50;53.50;;;;;;4083396;28;20249;-42
2022/11/30 10:11:21;;;;;;;3.25;1.00;;;24.60;53.50;;;;;;4072202;28;20785;-39
2022/11/30 10:13:58;;;;;;;2.40;1.13;;;24.60;53.40;;;;;;4062665;28;20047;-39
2022/11/30 10:16:39;;;;;;;4.00;1.40;;;24.50;53.30;;;;;;4079639;28;20047;-41
2022/11/30 10:19:17;;;;;;;5.10;1.05;;;24.60;53.40;;;;;;4073383;28;20110;-40
2022/11/30 10:21:59;;;;;;;6.57;1.20;;;24.50;53.40;;;;;;4075003;28;20099;-41
2022/11/30 10:24:40;;;;;;;4.45;1.15;;;24.50;53.40;;;;;;4071092;28;20038;-45
2022/11/30 10:27:24;;;;;;;3.45;0.95;;;24.50;53.40;;;;;;4078449;28;20067;-38
2022/11/30 10:29:46;;;;;;;;;;;24.50;53.30;;;;;;4077505;28;20046;-39
2022/11/30 10:32:34;;;;;;;4.10;1.40;;;24.50;53.30;;;;;;4073895;28;19927;-39
2022/11/30 10:35:03;;;;;;;4.72;1.05;;;24.50;53.30;;;;;;4076196;28;20057;-43
2022/11/30 10:37:38;;;;;;;9.45;1.55;;;24.50;53.30;;;;;;4080563;28;20050;-39
2022/11/30 10:40:02;;;;;;;3.55;1.00;;;24.60;53.40;;;;;;4078379;28;20065;-41
2022/11/30 10:42:41;;;;;;;3.90;1.25;;;24.60;53.40;;;;;;4064263;29;20559;-45
2022/11/30 10:45:11;;;;;;;3.90;1.05;;;24.50;53.40;;;;;;4072372;28;20074;-42
2022/11/30 10:47:36;;;;;;;3.45;1.25;;;24.50;53.40;;;;;;4082407;28;20053;-39
2022/11/30 10:49:59;;;;;;;5.10;1.67;;;24.50;53.50;;;;;;4083249;28;20046;-40
2022/11/30 10:52:33;;;;;;;4.47;1.90;;;24.50;53.30;;;;;;4084352;28;20426;-41
2022/11/30 10:54:57;;;;;;;5.68;1.77;;;24.50;52.80;;;;;;4085985;28;20067;-41
2022/11/30 10:57:21;;;;;;;9.88;3.05;;;24.50;52.60;;;;;;4085594;28;20412;-41
2022/11/30 10:59:47;;;;;;;;;;;24.50;52.40;;;;;;4081095;28;20555;-42
2022/11/30 11:02:43;;;;;;;14.00;2.80;;;24.50;52.60;;;;;;4083028;28;20354;-39
2022/11/30 11:05:17;;;;;;;10.90;2.10;;;24.40;52.80;;;;;;4078142;28;20406;-38
2022/11/30 11:08:23;;;;;;;10.50;2.38;;;24.40;53.10;;;;;;4076519;28;20047;-45
2022/11/30 11:10:50;;;;;;;8.18;1.98;;;24.40;53.30;;;;;;4059388;28;20117;-39
2022/11/30 11:13:40;;;;;;;5.18;1.60;;;24.40;53.40;;;;;;4077139;28;20134;-38
2022/11/30 11:16:05;;;;;;;4.63;1.50;;;24.40;53.50;;;;;;4074914;28;20043;-42
2022/11/30 11:18:31;;;;;;;6.90;1.65;;;24.40;53.60;;;;;;4081354;28;20644;-39
2022/11/30 11:21:07;;;;;;;10.73;1.90;;;24.40;53.70;;;;;;4074577;28;20047;-41
2022/11/30 11:23:41;;;;;;;10.77;1.80;;;24.40;53.90;;;;;;4080348;28;20028;-40
2022/11/30 11:26:05;;;;;;;8.38;1.65;;;24.50;54.10;;;;;;4075904;28;20105;-41
2022/11/30 11:28:29;;;;;;;6.13;1.55;;;24.50;54.10;;;;;;4077303;28;20518;-39
2022/11/30 11:30:56;;;;;;;7.45;1.63;;;24.40;54.10;;;;;;4078171;28;20047;-40
2022/11/30 11:33:27;;;;;;;6.22;1.58;;;24.40;54.10;;;;;;4077640;28;20043;-40
2022/11/30 11:35:53;;;;;;;5.18;1.30;;;24.40;54.10;;;;;;4080803;28;20438;-39
2022/11/30 11:38:26;;;;;;;7.22;1.67;;;24.40;54.10;;;;;;4079943;28;20039;-38
2022/11/30 11:41:16;;;;;;;11.52;1.67;;;24.40;54.20;;;;;;4074340;28;20201;-40
2022/11/30 11:44:05;;;;;;;4.97;1.60;;;24.40;54.30;;;;;;4078073;28;20040;-44
2022/11/30 11:46:28;;;;;;;3.78;1.40;;;24.40;54.30;;;;;;4072395;28;20043;-41
2022/11/30 11:49:20;;;;;;;3.28;1.38;;;24.40;54.30;;;;;;4075145;28;20071;-39
2022/11/30 11:51:44;;;;;;;6.72;1.58;;;24.40;54.30;;;;;;4080267;28;20070;-42
2022/11/30 11:54:42;;;;;;;5.32;1.42;;;24.40;54.20;;;;;;4077432;28;20047;-39
2022/11/30 11:57:11;;;;;;;4.28;1.15;;;24.40;54.20;;;;;;4041562;29;20348;-41
2022/11/30 11:59:45;;;;;;;4.63;1.52;;;24.40;54.30;;;;;;4078724;28;20114;-40
2022/11/30 12:02:08;;;;;;;7.78;2.00;;;24.40;54.00;;;;;;4075950;28;20172;-40
2022/11/30 12:04:47;;;;;;;4.30;1.40;;;24.40;54.10;;;;;;4075217;28;20035;-37
2022/11/30 12:07:35;;;;;;;9.80;1.67;;;24.40;54.20;;;;;;4080276;28;20132;-39
2022/11/30 12:10:28;;;;;;;6.63;1.17;;;24.40;54.40;;;;;;4080751;28;20384;-39
2022/11/30 12:12:51;;;;;;;8.55;1.95;;;24.40;54.30;;;;;;4076604;28;20035;-40
2022/11/30 12:15:14;;;;;;;5.38;1.27;;;24.40;54.30;;;;;;4074899;28;20036;-40
2022/11/30 12:18:05;;;;;;;11.93;1.55;;;24.30;54.30;;;;;;4074808;28;20035;-38
2022/11/30 12:20:57;;;;;;;4.22;1.10;;;24.40;54.40;;;;;;4072532;28;20047;-39
2022/11/30 12:23:19;;;;;;;6.63;1.30;;;24.30;54.30;;;;;;4071924;28;20091;-39
2022/11/30 12:25:53;;;;;;;7.13;1.20;;;24.30;54.50;;;;;;4074287;28;20055;-41
2022/11/30 12:28:31;;;;;;;4.20;1.20;;;24.30;54.60;;;;;;4074364;28;20046;-41
2022/11/30 12:31:16;;;;;;;6.63;1.75;;;24.30;54.60;;;;;;4073816;28;20742;-39
2022/11/30 12:34:20;;;;;;;5.70;1.40;;;24.30;54.60;;;;;;4073355;28;20480;-41
2022/11/30 12:37:05;;;;;;;6.35;1.17;;;24.30;54.60;;;;;;4054821;28;20439;-41
2022/11/30 12:39:36;;;;;;;4.55;1.15;;;24.30;54.70;;;;;;4080122;28;20043;-39
2022/11/30 12:42:08;;;;;;;3.20;0.80;;;24.30;54.70;;;;;;4072013;28;20047;-41
2022/11/30 12:44:43;;;;;;;4.65;0.98;;;24.30;54.70;;;;;;4077396;28;20051;-40
2022/11/30 12:47:25;;;;;;;6.03;1.15;;;24.30;54.80;;;;;;4074845;28;20584;-40
2022/11/30 12:50:12;;;;;;;4.65;1.20;;;24.30;54.70;;;;;;4068323;29;20418;-40
2022/11/30 12:52:37;;;;;;;3.70;0.88;;;24.30;54.70;;;;;;4075129;28;20046;-41